Time,TemperatureF,DewpointF,PressureIn,WindDirection,WindDirectionDegrees,WindSpeedMPH,WindSpeedGustMPH,Humidity,HourlyPrecipIn,Conditions,Clouds,dailyrainin,SoftwareType,DateUTC
2013-02-10 00:00:00,14.4,12.5,30.41,NNW,343,0.0,0.0,92,0.00,,,0.00,Wunderground v.1.15,2013-02-10 05:00:00,
2013-02-10 00:01:00,14.3,12.4,30.41,NNW,342,0.0,0.0,92,0.00,,,0.00,Wunderground v.1.15,2013-02-10 05:01:00,
2013-02-10 00:05:00,14.3,12.4,30.41,NNW,343,0.0,0.0,92,0.00,,,0.00,Wunderground v.1.15,2013-02-10 05:05:00,
2013-02-10 00:07:00,14.2,12.3,30.41,NNW,343,0.0,0.0,92,0.00,,,0.00,Wunderground v.1.15,2013-02-10 05:07:00,
2013-02-10 00:12:00,14.1,12.2,30.41,NNW,343,0.0,0.0,92,0.00,,,0.00,Wunderground v.1.15,2013-02-10 05:12:00,
2013-02-10 00:18:00,14.0,12.1,30.41,NNW,343,0.0,0.0,92,0.00,,,0.00,Wunderground v.1.15,2013-02-10 05:18:00,
2013-02-10 00:23:00,14.0,12.1,30.41,NNW,342,0.0,0.0,92,0.00,,,0.00,Wunderground v.1.15,2013-02-10 05:23:00,
2013-02-10 00:28:00,13.9,12.0,30.41,NNW,343,0.0,0.0,92,0.00,,,0.00,Wunderground v.1.15,2013-02-10 05:28:00,
2013-02-10 00:33:00,13.7,11.8,30.41,NNW,342,0.0,0.0,92,0.00,,,0.00,Wunderground v.1.15,2013-02-10 05:33:00,
2013-02-10 00:40:00,13.5,11.6,30.41,NNW,343,0.0,0.0,92,0.00,,,0.00,Wunderground v.1.15,2013-02-10 05:40:00,
2013-02-10 00:45:00,13.4,11.5,30.41,NNW,343,0.0,0.0,92,0.00,,,0.00,Wunderground v.1.15,2013-02-10 05:45:00,
2013-02-10 00:50:00,13.3,11.4,30.41,NNW,343,0.0,0.0,92,0.00,,,0.00,Wunderground v.1.15,2013-02-10 05:50:00,
2013-02-10 00:55:00,13.2,11.3,30.40,NNW,342,0.0,0.0,92,0.00,,,0.00,Wunderground v.1.15,2013-02-10 05:55:00,
2013-02-10 01:01:00,13.1,11.2,30.40,NNW,343,0.0,0.0,92,0.00,,,0.00,Wunderground v.1.15,2013-02-10 06:01:00,
2013-02-10 01:06:00,13.0,11.1,30.40,NNW,343,0.0,0.0,92,0.00,,,0.00,Wunderground v.1.15,2013-02-10 06:06:00,
2013-02-10 01:11:00,12.9,11.0,30.40,NNW,343,0.0,0.0,92,0.00,,,0.00,Wunderground v.1.15,2013-02-10 06:11:00,
2013-02-10 01:16:00,12.8,10.9,30.40,NNW,343,0.0,0.0,92,0.00,,,0.00,Wunderground v.1.15,2013-02-10 06:16:00,
2013-02-10 01:22:00,12.7,10.8,30.39,NNW,343,0.0,0.0,92,0.00,,,0.00,Wunderground v.1.15,2013-02-10 06:22:00,
2013-02-10 01:27:00,12.7,10.8,30.39,NNW,343,0.0,0.0,92,0.00,,,0.00,Wunderground v.1.15,2013-02-10 06:27:00,
2013-02-10 01:33:00,12.6,10.7,30.39,NNW,343,0.0,0.0,92,0.00,,,0.00,Wunderground v.1.15,2013-02-10 06:33:00,
2013-02-10 01:38:00,12.4,10.5,30.39,NNW,343,0.0,0.0,92,0.00,,,0.00,Wunderground v.1.15,2013-02-10 06:38:00,
2013-02-10 01:43:00,12.3,10.4,30.39,NNW,343,0.0,0.0,92,0.00,,,0.00,Wunderground v.1.15,2013-02-10 06:43:00,
2013-02-10 01:50:00,12.2,10.3,30.39,NNW,343,0.0,0.0,92,0.00,,,0.00,Wunderground v.1.15,2013-02-10 06:50:00,
2013-02-10 01:56:00,12.1,10.2,30.39,NNW,342,0.0,0.0,92,0.00,,,0.00,Wunderground v.1.15,2013-02-10 06:56:00,
2013-02-10 02:01:00,12.1,10.2,30.39,NNW,343,0.0,0.0,92,0.00,,,0.00,Wunderground v.1.15,2013-02-10 07:01:00,
2013-02-10 02:06:00,12.0,10.1,30.39,NNW,343,0.0,0.0,92,0.00,,,0.00,Wunderground v.1.15,2013-02-10 07:06:00,
2013-02-10 02:11:00,11.9,10.0,30.39,NNW,343,0.0,0.0,92,0.00,,,0.00,Wunderground v.1.15,2013-02-10 07:11:00,
2013-02-10 02:16:00,11.8,9.9,30.39,NNW,343,0.0,0.0,92,0.00,,,0.00,Wunderground v.1.15,2013-02-10 07:16:00,
2013-02-10 02:21:00,11.7,9.8,30.39,NNW,342,0.0,0.0,92,0.00,,,0.00,Wunderground v.1.15,2013-02-10 07:21:00,
2013-02-10 02:26:00,11.7,9.8,30.39,NNW,343,0.0,0.0,92,0.00,,,0.00,Wunderground v.1.15,2013-02-10 07:26:00,
2013-02-10 02:31:00,11.7,9.8,30.39,NNW,343,0.0,0.0,92,0.00,,,0.00,Wunderground v.1.15,2013-02-10 07:31:00,
2013-02-10 02:37:00,11.6,9.7,30.39,NNW,343,0.0,0.0,92,0.00,,,0.00,Wunderground v.1.15,2013-02-10 07:37:00,
2013-02-10 02:42:00,11.6,9.7,30.39,NNW,343,0.0,0.0,92,0.00,,,0.00,Wunderground v.1.15,2013-02-10 07:42:00,
2013-02-10 02:48:00,11.5,9.6,30.39,NNW,342,0.0,0.0,92,0.00,,,0.00,Wunderground v.1.15,2013-02-10 07:48:00,
2013-02-10 02:53:00,11.4,9.5,30.39,NNW,343,0.0,0.0,92,0.00,,,0.00,Wunderground v.1.15,2013-02-10 07:53:00,
2013-02-10 03:00:00,11.3,9.4,30.39,NNW,343,0.0,0.0,92,0.00,,,0.00,Wunderground v.1.15,2013-02-10 08:00:00,
2013-02-10 03:05:00,11.3,9.4,30.38,NNW,343,0.0,0.0,92,0.00,,,0.00,Wunderground v.1.15,2013-02-10 08:05:00,
2013-02-10 03:10:00,11.2,9.3,30.38,NNW,343,0.0,0.0,92,0.00,,,0.00,Wunderground v.1.15,2013-02-10 08:10:00,
2013-02-10 03:15:00,11.2,9.3,30.38,NNW,343,0.0,0.0,92,0.00,,,0.00,Wunderground v.1.15,2013-02-10 08:15:00,
2013-02-10 03:21:00,11.1,9.2,30.38,NNW,343,0.0,0.0,92,0.00,,,0.00,Wunderground v.1.15,2013-02-10 08:21:00,
2013-02-10 03:26:00,11.1,9.2,30.37,NNW,342,0.0,0.0,92,0.00,,,0.00,Wunderground v.1.15,2013-02-10 08:26:00,
2013-02-10 03:31:00,11.0,9.1,30.37,NNW,343,0.0,0.0,92,0.00,,,0.00,Wunderground v.1.15,2013-02-10 08:31:00,
2013-02-10 03:36:00,11.0,9.1,30.37,NNW,343,0.0,0.0,92,0.00,,,0.00,Wunderground v.1.15,2013-02-10 08:36:00,
2013-02-10 03:41:00,10.9,9.0,30.37,NNW,342,0.0,0.0,92,0.00,,,0.00,Wunderground v.1.15,2013-02-10 08:41:00,
2013-02-10 03:47:00,10.9,9.0,30.36,NNW,342,0.0,0.0,92,0.00,,,0.00,Wunderground v.1.15,2013-02-10 08:47:00,
2013-02-10 03:52:00,10.8,8.9,30.36,NNW,343,0.0,0.0,92,0.00,,,0.00,Wunderground v.1.15,2013-02-10 08:52:00,
2013-02-10 03:58:00,10.7,8.8,30.35,NNW,343,0.0,0.0,92,0.00,,,0.00,Wunderground v.1.15,2013-02-10 08:58:00,
2013-02-10 04:03:00,10.7,8.8,30.35,NNW,343,0.0,0.0,92,0.00,,,0.00,Wunderground v.1.15,2013-02-10 09:03:00,
2013-02-10 04:10:00,10.6,8.7,30.35,NNW,343,0.0,0.0,92,0.00,,,0.00,Wunderground v.1.15,2013-02-10 09:10:00,
2013-02-10 04:15:00,10.5,8.6,30.35,NNW,342,0.0,0.0,92,0.00,,,0.00,Wunderground v.1.15,2013-02-10 09:15:00,
2013-02-10 04:21:00,10.5,8.6,30.35,NNW,342,0.0,0.0,92,0.00,,,0.00,Wunderground v.1.15,2013-02-10 09:21:00,
2013-02-10 04:26:00,10.4,8.5,30.35,NNW,343,0.0,0.0,92,0.00,,,0.00,Wunderground v.1.15,2013-02-10 09:26:00,
2013-02-10 04:31:00,10.4,8.5,30.35,NNW,343,0.0,0.0,92,0.00,,,0.00,Wunderground v.1.15,2013-02-10 09:31:00,
2013-02-10 04:36:00,10.4,8.5,30.35,NNW,343,0.0,0.0,92,0.00,,,0.00,Wunderground v.1.15,2013-02-10 09:36:00,
2013-02-10 04:41:00,10.5,8.6,30.35,NNW,342,0.0,0.0,92,0.00,,,0.00,Wunderground v.1.15,2013-02-10 09:41:00,
2013-02-10 04:46:00,10.5,8.6,30.35,NNW,343,0.0,0.0,92,0.00,,,0.00,Wunderground v.1.15,2013-02-10 09:46:00,
2013-02-10 04:51:00,10.5,8.6,30.35,NNW,343,0.0,0.0,92,0.00,,,0.00,Wunderground v.1.15,2013-02-10 09:51:00,
2013-02-10 04:56:00,10.7,9.1,30.35,NNW,342,0.0,0.0,93,0.00,,,0.00,Wunderground v.1.15,2013-02-10 09:56:00,
2013-02-10 05:02:00,10.7,9.1,30.35,NNW,343,0.0,0.0,93,0.00,,,0.00,Wunderground v.1.15,2013-02-10 10:02:00,
2013-02-10 05:07:00,10.9,9.3,30.35,NNW,343,0.0,0.0,93,0.00,,,0.00,Wunderground v.1.15,2013-02-10 10:07:00,
2013-02-10 05:13:00,11.0,9.4,30.35,NNW,342,0.0,0.0,93,0.00,,,0.00,Wunderground v.1.15,2013-02-10 10:13:00,
2013-02-10 05:18:00,11.1,9.5,30.36,NNW,343,0.0,0.0,93,0.00,,,0.00,Wunderground v.1.15,2013-02-10 10:18:00,
2013-02-10 05:23:00,11.2,9.6,30.36,NNW,343,0.0,0.0,93,0.00,,,0.00,Wunderground v.1.15,2013-02-10 10:23:00,
2013-02-10 05:28:00,11.2,9.6,30.36,NNW,343,0.0,0.0,93,0.00,,,0.00,Wunderground v.1.15,2013-02-10 10:28:00,
2013-02-10 05:35:00,11.3,9.7,30.35,NNW,343,0.0,0.0,93,0.00,,,0.00,Wunderground v.1.15,2013-02-10 10:35:00,
2013-02-10 05:40:00,11.3,9.7,30.36,NNW,343,0.0,0.0,93,0.00,,,0.00,Wunderground v.1.15,2013-02-10 10:40:00,
2013-02-10 05:46:00,11.4,9.8,30.36,NNW,343,0.0,0.0,93,0.00,,,0.00,Wunderground v.1.15,2013-02-10 10:46:00,
2013-02-10 05:51:00,11.4,9.8,30.35,NNW,343,0.0,0.0,93,0.00,,,0.00,Wunderground v.1.15,2013-02-10 10:51:00,
2013-02-10 05:56:00,11.4,9.8,30.35,NNW,343,0.0,0.0,93,0.00,,,0.00,Wunderground v.1.15,2013-02-10 10:56:00,
2013-02-10 06:01:00,11.4,9.8,30.35,NNW,343,0.0,0.0,93,0.00,,,0.00,Wunderground v.1.15,2013-02-10 11:01:00,
2013-02-10 06:06:00,11.4,9.8,30.35,NNW,342,0.0,0.0,93,0.00,,,0.00,Wunderground v.1.15,2013-02-10 11:06:00,
2013-02-10 06:11:00,11.4,9.8,30.35,NNW,343,0.0,0.0,93,0.00,,,0.00,Wunderground v.1.15,2013-02-10 11:11:00,
2013-02-10 06:17:00,11.4,9.8,30.36,NNW,342,0.0,0.0,93,0.00,,,0.00,Wunderground v.1.15,2013-02-10 11:17:00,
2013-02-10 06:22:00,11.4,9.8,30.36,NNW,342,0.0,0.0,93,0.00,,,0.00,Wunderground v.1.15,2013-02-10 11:22:00,
2013-02-10 06:27:00,11.5,9.9,30.36,NNW,343,0.0,0.0,93,0.00,,,0.00,Wunderground v.1.15,2013-02-10 11:27:00,
2013-02-10 06:32:00,11.5,9.9,30.36,NNW,343,0.0,0.0,93,0.00,,,0.00,Wunderground v.1.15,2013-02-10 11:32:00,
2013-02-10 06:38:00,11.5,9.9,30.36,NNW,342,0.0,0.0,93,0.00,,,0.00,Wunderground v.1.15,2013-02-10 11:38:00,
2013-02-10 06:45:00,11.6,10.0,30.37,NNW,343,0.0,0.0,93,0.00,,,0.00,Wunderground v.1.15,2013-02-10 11:45:00,
2013-02-10 06:51:00,11.7,10.1,30.36,NNW,342,0.0,0.0,93,0.00,,,0.00,Wunderground v.1.15,2013-02-10 11:51:00,
2013-02-10 06:56:00,11.7,10.1,30.36,NNW,343,0.0,0.0,93,0.00,,,0.00,Wunderground v.1.15,2013-02-10 11:56:00,
2013-02-10 07:02:00,11.8,10.2,30.37,NNW,342,0.0,0.0,93,0.00,,,0.00,Wunderground v.1.15,2013-02-10 12:02:00,
2013-02-10 07:08:00,11.9,10.3,30.37,NNW,343,0.0,0.0,93,0.00,,,0.00,Wunderground v.1.15,2013-02-10 12:08:00,
2013-02-10 07:13:00,11.9,10.3,30.37,NNW,342,0.0,0.0,93,0.00,,,0.00,Wunderground v.1.15,2013-02-10 12:13:00,
2013-02-10 07:18:00,12.0,10.4,30.36,NNW,343,0.0,0.0,93,0.00,,,0.00,Wunderground v.1.15,2013-02-10 12:18:00,
2013-02-10 07:23:00,12.1,10.5,30.36,NNW,342,0.0,0.0,93,0.00,,,0.00,Wunderground v.1.15,2013-02-10 12:23:00,
2013-02-10 07:28:00,12.2,10.6,30.36,NNW,342,0.0,0.0,93,0.00,,,0.00,Wunderground v.1.15,2013-02-10 12:28:00,
2013-02-10 07:33:00,12.3,10.7,30.36,NNW,343,0.0,0.0,93,0.00,,,0.00,Wunderground v.1.15,2013-02-10 12:33:00,
2013-02-10 07:38:00,12.5,10.9,30.36,NNW,343,0.0,0.0,93,0.00,,,0.00,Wunderground v.1.15,2013-02-10 12:38:00,
2013-02-10 07:43:00,12.6,11.0,30.36,NNW,343,0.0,0.0,93,0.00,,,0.00,Wunderground v.1.15,2013-02-10 12:43:00,
2013-02-10 07:50:00,12.8,11.4,30.36,NNW,343,0.0,0.0,94,0.00,,,0.00,Wunderground v.1.15,2013-02-10 12:50:00,
2013-02-10 07:55:00,13.1,11.7,30.36,NNW,343,0.0,0.0,94,0.00,,,0.00,Wunderground v.1.15,2013-02-10 12:55:00,
2013-02-10 08:01:00,13.5,12.1,30.36,NNW,343,0.0,0.0,94,0.00,,,0.00,Wunderground v.1.15,2013-02-10 13:01:00,
2013-02-10 08:06:00,13.7,12.3,30.36,NNW,343,0.0,0.0,94,0.00,,,0.00,Wunderground v.1.15,2013-02-10 13:06:00,
2013-02-10 08:12:00,14.1,12.7,30.36,NNW,343,0.0,0.0,94,0.00,,,0.00,Wunderground v.1.15,2013-02-10 13:12:00,
2013-02-10 08:18:00,14.5,13.1,30.36,NNW,343,0.0,0.0,94,0.00,,,0.00,Wunderground v.1.15,2013-02-10 13:18:00,
2013-02-10 08:23:00,15.0,13.6,30.36,NNW,343,0.0,0.0,94,0.00,,,0.00,Wunderground v.1.15,2013-02-10 13:23:00,
2013-02-10 08:28:00,15.5,14.3,30.36,NNW,342,0.0,0.0,95,0.00,,,0.00,Wunderground v.1.15,2013-02-10 13:28:00,
2013-02-10 08:33:00,16.4,15.2,30.36,NNW,343,0.0,0.0,95,0.00,,,0.00,Wunderground v.1.15,2013-02-10 13:33:00,
2013-02-10 08:38:00,17.2,16.0,30.36,NNW,342,0.0,0.0,95,0.00,,,0.00,Wunderground v.1.15,2013-02-10 13:38:00,
2013-02-10 08:43:00,17.7,16.3,30.36,NNW,342,0.0,0.0,94,0.00,,,0.00,Wunderground v.1.15,2013-02-10 13:43:00,
2013-02-10 08:48:00,18.3,16.9,30.35,NNW,343,0.0,0.0,94,0.00,,,0.00,Wunderground v.1.15,2013-02-10 13:48:00,
2013-02-10 08:53:00,19.0,17.6,30.35,NNW,343,0.0,0.0,94,0.00,,,0.00,Wunderground v.1.15,2013-02-10 13:53:00,
2013-02-10 08:58:00,19.7,18.3,30.35,NNW,343,0.0,0.0,94,0.00,,,0.00,Wunderground v.1.15,2013-02-10 13:58:00,
2013-02-10 09:03:00,20.2,18.8,30.35,NNW,343,0.0,0.0,94,0.00,,,0.00,Wunderground v.1.15,2013-02-10 14:03:00,
2013-02-10 09:10:00,21.0,19.3,30.35,NNW,343,1.0,2.0,93,0.00,,,0.00,Wunderground v.1.15,2013-02-10 14:10:00,
2013-02-10 09:16:00,21.7,20.0,30.34,NNW,343,1.0,1.0,93,0.00,,,0.00,Wunderground v.1.15,2013-02-10 14:16:00,
2013-02-10 09:21:00,22.3,20.6,30.35,NNW,343,0.0,0.0,93,0.00,,,0.00,Wunderground v.1.15,2013-02-10 14:21:00,
2013-02-10 09:26:00,22.8,20.8,30.34,NNW,342,0.0,0.0,92,0.00,,,0.00,Wunderground v.1.15,2013-02-10 14:26:00,
2013-02-10 09:31:00,23.2,21.0,30.34,NNW,343,0.0,0.0,91,0.00,,,0.00,Wunderground v.1.15,2013-02-10 14:31:00,
2013-02-10 09:36:00,23.6,21.4,30.34,NNW,343,0.0,0.0,91,0.00,,,0.00,Wunderground v.1.15,2013-02-10 14:36:00,
2013-02-10 09:41:00,24.1,21.9,30.34,NNW,342,0.0,0.0,91,0.00,,,0.00,Wunderground v.1.15,2013-02-10 14:41:00,
2013-02-10 09:46:00,25.0,22.5,30.34,NNW,343,0.0,0.0,90,0.00,,,0.00,Wunderground v.1.15,2013-02-10 14:46:00,
2013-02-10 09:52:00,25.6,22.3,30.33,NNW,343,0.0,0.0,87,0.00,,,0.00,Wunderground v.1.15,2013-02-10 14:52:00,
2013-02-10 09:57:00,26.6,22.4,30.33,NNW,343,0.0,2.0,84,0.00,,,0.00,Wunderground v.1.15,2013-02-10 14:57:00,
2013-02-10 10:03:00,27.6,22.8,30.32,NNW,343,1.0,2.0,82,0.00,,,0.00,Wunderground v.1.15,2013-02-10 15:03:00,
2013-02-10 10:08:00,28.7,23.6,30.32,NNW,343,1.0,2.0,81,0.00,,,0.00,Wunderground v.1.15,2013-02-10 15:08:00,
2013-02-10 10:13:00,29.5,23.5,30.33,NNW,343,1.0,1.0,78,0.00,,,0.00,Wunderground v.1.15,2013-02-10 15:13:00,
2013-02-10 10:18:00,30.2,22.9,30.33,NNW,342,0.0,1.0,74,0.00,,,0.00,Wunderground v.1.15,2013-02-10 15:18:00,
2013-02-10 10:23:00,31.2,23.2,30.33,NNW,342,0.0,0.0,72,0.00,,,0.00,Wunderground v.1.15,2013-02-10 15:23:00,
2013-02-10 10:30:00,32.9,23.8,30.32,NNW,343,0.0,1.0,69,0.00,,,0.00,Wunderground v.1.15,2013-02-10 15:30:00,
2013-02-10 10:35:00,33.7,24.3,30.32,ENE,60,0.0,2.0,68,0.00,,,0.00,Wunderground v.1.15,2013-02-10 15:35:00,
2013-02-10 10:40:00,34.6,24.4,30.32,ENE,75,1.0,2.0,66,0.00,,,0.00,Wunderground v.1.15,2013-02-10 15:40:00,
2013-02-10 10:46:00,35.3,24.3,30.31,SE,132,1.0,3.0,64,0.00,,,0.00,Wunderground v.1.15,2013-02-10 15:46:00,
2013-02-10 10:51:00,35.9,24.1,30.31,SE,132,2.0,3.0,62,0.00,,,0.00,Wunderground v.1.15,2013-02-10 15:51:00,
2013-02-10 10:56:00,36.6,24.0,30.31,SE,134,2.0,4.0,60,0.00,,,0.00,Wunderground v.1.15,2013-02-10 15:56:00,
2013-02-10 11:01:00,37.3,23.4,30.31,SE,134,4.0,4.0,57,0.00,,,0.00,Wunderground v.1.15,2013-02-10 16:01:00,
2013-02-10 11:06:00,37.9,24.4,30.31,SE,126,4.0,5.0,58,0.00,,,0.00,Wunderground v.1.15,2013-02-10 16:06:00,
2013-02-10 11:12:00,38.6,24.7,30.31,ESE,123,4.0,4.0,57,0.00,,,0.00,Wunderground v.1.15,2013-02-10 16:12:00,
2013-02-10 11:17:00,39.0,23.7,30.31,SSE,154,4.0,4.0,54,0.00,,,0.00,Wunderground v.1.15,2013-02-10 16:17:00,
2013-02-10 11:23:00,39.7,24.8,30.31,ESE,118,4.0,4.0,55,0.00,,,0.00,Wunderground v.1.15,2013-02-10 16:23:00,
2013-02-10 11:30:00,40.4,24.6,30.31,SE,133,3.0,4.0,53,0.00,,,0.00,Wunderground v.1.15,2013-02-10 16:30:00,
2013-02-10 11:35:00,40.9,25.1,30.30,ESE,113,3.0,4.0,53,0.00,,,0.00,Wunderground v.1.15,2013-02-10 16:35:00,
2013-02-10 11:40:00,40.8,24.5,30.30,ESE,121,3.0,5.0,52,0.00,,,0.00,Wunderground v.1.15,2013-02-10 16:40:00,
2013-02-10 11:45:00,41.4,24.6,30.29,SE,130,3.0,4.0,51,0.00,,,0.00,Wunderground v.1.15,2013-02-10 16:45:00,
2013-02-10 11:51:00,42.2,25.3,30.29,SSE,163,2.0,2.0,51,0.00,,,0.00,Wunderground v.1.15,2013-02-10 16:51:00,
2013-02-10 11:56:00,42.7,25.3,30.29,SE,133,2.0,4.0,50,0.00,,,0.00,Wunderground v.1.15,2013-02-10 16:56:00,
2013-02-10 12:01:00,42.9,25.0,30.28,SE,138,2.0,3.0,49,0.00,,,0.00,Wunderground v.1.15,2013-02-10 17:01:00,
2013-02-10 12:06:00,43.2,26.3,30.28,SE,133,2.0,3.0,51,0.00,,,0.00,Wunderground v.1.15,2013-02-10 17:06:00,
2013-02-10 12:11:00,43.4,26.0,30.28,SE,134,2.0,3.0,50,0.00,,,0.00,Wunderground v.1.15,2013-02-10 17:11:00,
2013-02-10 12:17:00,44.1,25.6,30.27,SE,146,2.0,3.0,48,0.00,,,0.00,Wunderground v.1.15,2013-02-10 17:17:00,
2013-02-10 12:22:00,44.2,27.2,30.25,SE,138,2.0,3.0,51,0.00,,,0.00,Wunderground v.1.15,2013-02-10 17:22:00,
2013-02-10 12:27:00,44.3,25.3,30.26,SE,137,2.0,5.0,47,0.00,,,0.00,Wunderground v.1.15,2013-02-10 17:27:00,
2013-02-10 12:32:00,44.5,26.0,30.26,SE,137,1.0,6.0,48,0.00,,,0.00,Wunderground v.1.15,2013-02-10 17:32:00,
2013-02-10 12:37:00,44.3,30.0,30.26,SE,138,1.0,6.0,57,0.00,,,0.00,Wunderground v.1.15,2013-02-10 17:37:00,
2013-02-10 12:42:00,44.5,27.0,30.25,SE,142,2.0,6.0,50,0.00,,,0.00,Wunderground v.1.15,2013-02-10 17:42:00,
2013-02-10 12:48:00,44.9,28.3,30.26,SSE,159,2.0,6.0,52,0.00,,,0.00,Wunderground v.1.15,2013-02-10 17:48:00,
2013-02-10 12:53:00,45.0,28.9,30.26,SSE,159,1.0,6.0,53,0.00,,,0.00,Wunderground v.1.15,2013-02-10 17:53:00,
2013-02-10 12:58:00,45.3,27.7,30.25,ESE,109,0.0,6.0,50,0.00,,,0.00,Wunderground v.1.15,2013-02-10 17:58:00,
2013-02-10 13:05:00,45.9,28.3,30.24,SE,139,2.0,3.0,50,0.00,,,0.00,Wunderground v.1.15,2013-02-10 18:05:00,
2013-02-10 13:10:00,46.1,26.4,30.23,SSE,150,2.0,3.0,46,0.00,,,0.00,Wunderground v.1.15,2013-02-10 18:10:00,
2013-02-10 13:16:00,46.3,28.7,30.22,SSE,163,2.0,4.0,50,0.00,,,0.00,Wunderground v.1.15,2013-02-10 18:16:00,
2013-02-10 13:21:00,46.6,27.4,30.21,SSE,159,2.0,2.0,47,0.00,,,0.00,Wunderground v.1.15,2013-02-10 18:21:00,
2013-02-10 13:27:00,46.5,30.7,30.21,SSE,159,1.0,2.0,54,0.00,,,0.00,Wunderground v.1.15,2013-02-10 18:27:00,
2013-02-10 13:32:00,47.1,28.4,30.20,SSE,167,1.0,6.0,48,0.00,,,0.00,Wunderground v.1.15,2013-02-10 18:32:00,
2013-02-10 13:38:00,47.8,30.5,30.20,SE,138,3.0,6.0,51,0.00,,,0.00,Wunderground v.1.15,2013-02-10 18:38:00,
2013-02-10 13:43:00,48.3,28.5,30.20,SE,146,2.0,5.0,46,0.00,,,0.00,Wunderground v.1.15,2013-02-10 18:43:00,
2013-02-10 13:48:00,48.6,27.6,30.19,SE,146,3.0,6.0,44,0.00,,,0.00,Wunderground v.1.15,2013-02-10 18:48:00,
2013-02-10 13:53:00,48.8,28.4,30.19,SSE,157,5.0,8.0,45,0.00,,,0.00,Wunderground v.1.15,2013-02-10 18:53:00,
2013-02-10 14:00:00,49.1,28.7,30.19,SSE,155,5.0,5.0,45,0.00,,,0.00,Wunderground v.1.15,2013-02-10 19:00:00,
2013-02-10 14:06:00,49.4,28.9,30.18,SE,130,4.0,6.0,45,0.00,,,0.00,Wunderground v.1.15,2013-02-10 19:06:00,
2013-02-10 14:11:00,49.5,29.6,30.18,SE,130,3.0,4.0,46,0.00,,,0.00,Wunderground v.1.15,2013-02-10 19:11:00,
2013-02-10 14:16:00,49.9,29.4,30.18,SSE,149,3.0,4.0,45,0.00,,,0.00,Wunderground v.1.15,2013-02-10 19:16:00,
2013-02-10 14:21:00,50.2,31.2,30.18,SE,125,3.0,3.0,48,0.00,,,0.00,Wunderground v.1.15,2013-02-10 19:21:00,
2013-02-10 14:27:00,50.4,31.4,30.18,SE,125,1.0,3.0,48,0.00,,,0.00,Wunderground v.1.15,2013-02-10 19:27:00,
2013-02-10 14:32:00,50.1,30.6,30.17,SSE,148,1.0,6.0,47,0.00,,,0.00,Wunderground v.1.15,2013-02-10 19:32:00,
2013-02-10 14:38:00,50.4,31.4,30.17,SSE,155,2.0,6.0,48,0.00,,,0.00,Wunderground v.1.15,2013-02-10 19:38:00,
2013-02-10 14:43:00,50.8,30.2,30.18,SSE,157,2.0,6.0,45,0.00,,,0.00,Wunderground v.1.15,2013-02-10 19:43:00,
2013-02-10 14:50:00,51.2,29.4,30.17,South,180,1.0,6.0,43,0.00,,,0.00,Wunderground v.1.15,2013-02-10 19:50:00,
2013-02-10 14:55:00,50.9,32.4,30.17,SE,135,1.0,6.0,49,0.00,,,0.00,Wunderground v.1.15,2013-02-10 19:55:00,
2013-02-10 15:01:00,50.4,29.8,30.17,SE,130,1.0,1.0,45,0.00,,,0.00,Wunderground v.1.15,2013-02-10 20:01:00,
2013-02-10 15:06:00,50.9,30.8,30.17,SSE,154,2.0,3.0,46,0.00,,,0.00,Wunderground v.1.15,2013-02-10 20:06:00,
2013-02-10 19:13:00,37.3,32.3,30.11,SE,140,0.0,0.0,82,0.00,,,0.00,Wunderground v.1.15,2013-02-11 00:13:00,
2013-02-10 19:18:00,37.1,32.4,30.11,SE,140,0.0,0.0,83,0.00,,,0.00,Wunderground v.1.15,2013-02-11 00:18:00,
2013-02-10 19:23:00,37.1,32.4,30.11,SSE,164,0.0,1.0,83,0.00,,,0.00,Wunderground v.1.15,2013-02-11 00:23:00,
2013-02-10 19:30:00,37.1,32.4,30.11,SE,140,1.0,3.0,83,0.00,,,0.00,Wunderground v.1.15,2013-02-11 00:30:00,
2013-02-10 19:37:00,37.8,32.5,30.10,SE,143,2.0,2.0,81,0.00,,,0.00,Wunderground v.1.15,2013-02-11 00:37:00,
2013-02-10 19:43:00,37.8,32.5,30.10,SE,143,1.0,2.0,81,0.00,,,0.00,Wunderground v.1.15,2013-02-11 00:43:00,
2013-02-10 19:49:00,37.7,32.4,30.10,SE,143,0.0,0.0,81,0.00,,,0.00,Wunderground v.1.15,2013-02-11 00:49:00,
2013-02-10 19:54:00,37.6,32.6,30.10,SE,143,0.0,0.0,82,0.00,,,0.00,Wunderground v.1.15,2013-02-11 00:54:00,
2013-02-10 20:00:00,37.4,32.7,30.10,SE,143,0.0,0.0,83,0.00,,,0.00,Wunderground v.1.15,2013-02-11 01:00:00,
2013-02-10 20:05:00,37.2,32.5,30.10,SE,143,0.0,0.0,83,0.00,,,0.00,Wunderground v.1.15,2013-02-11 01:05:00,
2013-02-10 20:11:00,37.0,32.6,30.10,SE,142,0.0,0.0,84,0.00,,,0.00,Wunderground v.1.15,2013-02-11 01:11:00,
2013-02-10 20:16:00,37.0,32.6,30.10,SE,142,0.0,0.0,84,0.00,,,0.00,Wunderground v.1.15,2013-02-11 01:16:00,
2013-02-10 20:22:00,36.9,32.5,30.09,SE,143,0.0,0.0,84,0.00,,,0.00,Wunderground v.1.15,2013-02-11 01:22:00,
2013-02-10 20:27:00,36.7,32.6,30.09,SE,143,0.0,0.0,85,0.00,,,0.00,Wunderground v.1.15,2013-02-11 01:27:00,
2013-02-10 20:32:00,36.6,32.5,30.09,SE,142,0.0,4.0,85,0.00,,,0.00,Wunderground v.1.15,2013-02-11 01:32:00,
2013-02-10 20:37:00,36.4,32.6,30.08,SE,142,0.0,4.0,86,0.00,,,0.00,Wunderground v.1.15,2013-02-11 01:37:00,
2013-02-10 20:43:00,36.2,32.4,30.08,SE,142,0.0,4.0,86,0.00,,,0.00,Wunderground v.1.15,2013-02-11 01:43:00,
2013-02-10 20:50:00,36.2,32.4,30.08,SE,143,0.0,4.0,86,0.00,,,0.00,Wunderground v.1.15,2013-02-11 01:50:00,
2013-02-10 20:55:00,36.2,32.4,30.08,SE,142,0.0,4.0,86,0.00,,,0.00,Wunderground v.1.15,2013-02-11 01:55:00,
2013-02-10 21:00:00,36.2,32.7,30.07,SE,143,0.0,4.0,87,0.00,,,0.00,Wunderground v.1.15,2013-02-11 02:00:00,
2013-02-10 21:09:00,36.1,32.6,30.07,SE,142,0.0,0.0,87,0.00,,,0.00,Wunderground v.1.15,2013-02-11 02:09:00,
2013-02-10 21:14:00,36.1,32.6,30.07,SE,143,0.0,0.0,87,0.00,,,0.00,Wunderground v.1.15,2013-02-11 02:14:00,
2013-02-10 21:20:00,36.0,32.5,30.07,SE,142,0.0,0.0,87,0.00,,,0.00,Wunderground v.1.15,2013-02-11 02:20:00,
2013-02-10 21:26:00,36.0,32.5,30.07,SE,143,0.0,0.0,87,0.00,,,0.00,Wunderground v.1.15,2013-02-11 02:26:00,
2013-02-10 21:31:00,36.0,32.5,30.06,SE,143,0.0,0.0,87,0.00,,,0.00,Wunderground v.1.15,2013-02-11 02:31:00,
2013-02-10 21:36:00,36.0,32.5,30.07,SE,142,0.0,0.0,87,0.00,,,0.00,Wunderground v.1.15,2013-02-11 02:36:00,
2013-02-10 21:42:00,35.9,32.4,30.06,SE,143,0.0,0.0,87,0.00,,,0.00,Wunderground v.1.15,2013-02-11 02:42:00,
2013-02-10 21:47:00,36.0,32.5,30.06,SE,142,0.0,0.0,87,0.00,,,0.00,Wunderground v.1.15,2013-02-11 02:47:00,
2013-02-10 21:53:00,36.1,32.6,30.05,SE,143,0.0,0.0,87,0.00,,,0.00,Wunderground v.1.15,2013-02-11 02:53:00,
2013-02-10 21:58:00,36.2,32.7,30.05,SE,143,0.0,0.0,87,0.00,,,0.00,Wunderground v.1.15,2013-02-11 02:58:00,
2013-02-10 22:03:00,36.4,32.6,30.04,East,99,0.0,1.0,86,0.00,,,0.00,Wunderground v.1.15,2013-02-11 03:03:00,
2013-02-10 22:09:00,36.6,32.5,30.04,East,100,0.0,1.0,85,0.00,,,0.00,Wunderground v.1.15,2013-02-11 03:09:00,
2013-02-10 22:15:00,36.9,32.5,30.05,SSE,163,0.0,4.0,84,0.00,,,0.00,Wunderground v.1.15,2013-02-11 03:15:00,
2013-02-10 22:21:00,37.1,32.4,30.04,SSE,163,0.0,0.0,83,0.00,,,0.00,Wunderground v.1.15,2013-02-11 03:21:00,
2013-02-10 22:26:00,37.4,32.7,30.04,SSE,163,0.0,0.0,83,0.00,,,0.00,Wunderground v.1.15,2013-02-11 03:26:00,
2013-02-10 22:31:00,37.7,33.3,30.04,SSE,163,0.0,1.0,84,0.00,,,0.00,Wunderground v.1.15,2013-02-11 03:31:00,
2013-02-10 22:36:00,37.8,33.1,30.05,South,181,0.0,6.0,83,0.00,,,0.00,Wunderground v.1.15,2013-02-11 03:36:00,
2013-02-10 22:41:00,38.3,33.0,30.05,SE,141,2.0,3.0,81,0.00,,,0.00,Wunderground v.1.15,2013-02-11 03:41:00,
2013-02-10 22:47:00,38.9,32.6,30.05,SSE,155,3.0,6.0,78,0.00,,,0.00,Wunderground v.1.15,2013-02-11 03:47:00,
2013-02-10 22:52:00,40.4,33.1,30.03,ESE,122,4.0,8.0,75,0.00,,,0.00,Wunderground v.1.15,2013-02-11 03:52:00,
2013-02-10 22:58:00,41.3,33.6,30.04,SSW,200,5.0,8.0,74,0.00,,,0.00,Wunderground v.1.15,2013-02-11 03:58:00,
2013-02-10 23:05:00,42.4,33.7,30.05,SSE,154,3.0,4.0,71,0.00,,,0.00,Wunderground v.1.15,2013-02-11 04:05:00,
2013-02-10 23:11:00,43.3,34.2,30.04,SE,140,4.0,4.0,70,0.00,,,0.00,Wunderground v.1.15,2013-02-11 04:11:00,
2013-02-10 23:16:00,43.4,34.6,30.04,SSW,192,4.0,5.0,71,0.00,,,0.00,Wunderground v.1.15,2013-02-11 04:16:00,
2013-02-10 23:22:00,43.4,35.0,30.04,SE,132,4.0,8.0,72,0.00,,,0.00,Wunderground v.1.15,2013-02-11 04:22:00,
2013-02-10 23:28:00,43.3,35.6,30.04,SSE,160,4.0,9.0,74,0.00,,,0.00,Wunderground v.1.15,2013-02-11 04:28:00,
2013-02-10 23:33:00,43.2,35.8,30.03,SSE,161,4.0,8.0,75,0.00,,,0.00,Wunderground v.1.15,2013-02-11 04:33:00,
2013-02-10 23:38:00,43.0,36.3,30.03,SSE,166,3.0,8.0,77,0.00,,,0.00,Wunderground v.1.15,2013-02-11 04:38:00,
2013-02-10 23:43:00,42.6,36.9,30.02,SE,128,4.0,7.0,80,0.00,,,0.01,Wunderground v.1.15,2013-02-11 04:43:00,
2013-02-10 23:48:00,42.3,37.2,30.02,SSE,155,4.0,7.0,82,0.00,,,0.01,Wunderground v.1.15,2013-02-11 04:48:00,
2013-02-10 23:53:00,41.9,37.4,30.01,SE,142,4.0,9.0,84,0.08,,,0.02,Wunderground v.1.15,2013-02-11 04:53:00,
2013-02-10 23:58:00,41.5,37.6,30.01,South,180,3.0,9.0,86,0.10,,,0.03,Wunderground v.1.15,2013-02-11 04:58:00,